createdAt,value
2023-04-03T00:00:39.834Z,79.27
2023-04-03T00:01:42.192Z,79.33
2023-04-03T00:02:44.599Z,79.38
2023-04-03T00:03:46.997Z,79.43
2023-04-03T00:04:48.995Z,79.34
2023-04-03T00:05:51.216Z,79.40
2023-04-03T00:06:53.324Z,79.40
2023-04-03T00:07:55.850Z,79.40
2023-04-03T00:08:58.423Z,79.37
2023-04-03T00:10:00.570Z,79.28
2023-04-03T00:11:03.998Z,79.30
2023-04-03T00:12:06.201Z,79.28
2023-04-03T00:13:09.912Z,79.21
2023-04-03T00:14:12.120Z,79.21
2023-04-03T00:15:14.282Z,79.25
2023-04-03T00:16:16.776Z,79.20
2023-04-03T00:17:19.562Z,79.14
2023-04-03T00:18:22.133Z,79.01
2023-04-03T00:19:24.290Z,79.00
2023-04-03T00:20:26.655Z,79.03
2023-04-03T00:21:29.419Z,79.08
2023-04-03T00:22:31.458Z,79.12
2023-04-03T00:23:34.454Z,79.06
2023-04-03T00:24:37.743Z,79.09
2023-04-03T00:25:40.300Z,79.07
2023-04-03T00:26:43.722Z,79.00
2023-04-03T00:27:45.929Z,78.99
2023-04-03T00:28:48.520Z,79.04
2023-04-03T00:29:50.651Z,79.10
2023-04-03T00:30:52.867Z,79.02
2023-04-03T00:31:55.200Z,78.99
2023-04-03T00:32:57.832Z,78.96
2023-04-03T00:34:00.420Z,79.03
2023-04-03T00:35:03.307Z,79.04
2023-04-03T00:36:08.792Z,79.12
2023-04-03T00:37:12.875Z,79.16
2023-04-03T00:38:15.345Z,79.20
2023-04-03T00:39:17.596Z,79.21
2023-04-03T00:40:22.174Z,79.17
2023-04-03T00:41:24.373Z,79.16
2023-04-03T00:42:26.737Z,79.14
2023-04-03T00:43:30.262Z,79.17
2023-04-03T00:44:39.197Z,79.23
2023-04-03T00:45:44.563Z,79.20
2023-04-03T00:46:47.429Z,79.22
2023-04-03T00:47:50.064Z,79.30
2023-04-03T00:48:52.725Z,79.37
2023-04-03T00:49:54.882Z,79.35
2023-04-03T00:50:58.637Z,79.26
2023-04-03T00:52:01.714Z,79.27
2023-04-03T00:53:07.595Z,79.31
2023-04-03T00:54:10.377Z,79.25
2023-04-03T00:55:13.649Z,79.25
2023-04-03T00:56:19.902Z,79.24
2023-04-03T00:57:23.229Z,79.23
2023-04-03T01:00:59.191Z,79.52
2023-04-03T01:02:02.175Z,79.71
2023-04-03T01:03:05.566Z,79.61
2023-04-03T01:05:40.498Z,79.57
2023-04-03T01:06:43.230Z,79.55
2023-04-03T01:07:47.111Z,79.51
2023-04-03T01:08:51.326Z,79.48
2023-04-03T01:10:00.184Z,79.47
2023-04-03T01:11:03.045Z,79.41
2023-04-03T01:12:20.646Z,79.36
2023-04-03T01:13:26.914Z,79.35
2023-04-03T01:14:29.008Z,79.30
2023-04-03T01:15:31.153Z,79.47
2023-04-03T01:16:33.940Z,79.56
2023-04-03T01:17:42.598Z,79.54
2023-04-03T01:18:46.012Z,79.43
2023-04-03T01:19:51.883Z,79.37
2023-04-03T01:21:17.663Z,79.42
2023-04-03T01:22:23.728Z,79.52
2023-04-03T01:24:56.270Z,79.46
2023-04-03T01:25:58.741Z,79.57
2023-04-03T01:27:04.642Z,79.56
2023-04-03T01:28:10.189Z,79.51
2023-04-03T01:29:12.506Z,79.55
2023-04-03T01:30:17.963Z,79.51
2023-04-03T01:32:58.101Z,79.57
2023-04-03T01:34:01.105Z,79.80
2023-04-03T01:35:04.462Z,79.84
2023-04-03T01:36:08.313Z,79.87
2023-04-03T01:37:10.860Z,79.82
2023-04-03T01:38:13.162Z,79.91
2023-04-03T01:39:17.211Z,79.84
2023-04-03T01:40:19.673Z,79.87
2023-04-03T01:41:23.411Z,79.89
2023-04-03T01:42:26.455Z,79.90
2023-04-03T01:43:28.624Z,79.80
2023-04-03T01:44:30.908Z,79.73
2023-04-03T01:45:33.244Z,79.75
2023-04-03T01:46:36.059Z,79.71
2023-04-03T01:47:38.266Z,79.62
2023-04-03T01:48:40.828Z,79.60
2023-04-03T01:49:43.087Z,79.65
2023-04-03T01:50:46.265Z,79.61
2023-04-03T01:51:49.055Z,79.60
2023-04-03T01:52:51.310Z,79.57
2023-04-03T01:53:53.588Z,79.53
2023-04-03T01:54:55.838Z,79.54
2023-04-03T01:55:58.094Z,79.56
2023-04-03T01:57:00.423Z,79.67
2023-04-03T01:58:03.001Z,79.70
2023-04-03T01:59:05.827Z,79.70
2023-04-03T02:00:10.588Z,79.66
2023-04-03T02:01:15.295Z,79.60
2023-04-03T02:02:17.875Z,79.59
2023-04-03T02:03:20.025Z,79.62
2023-04-03T02:04:23.453Z,79.52
2023-04-03T02:05:25.858Z,79.57
2023-04-03T02:06:28.018Z,79.55
2023-04-03T02:07:30.291Z,79.60
2023-04-03T02:08:32.541Z,79.65
2023-04-03T02:09:35.735Z,79.72
2023-04-03T02:10:38.459Z,79.68
2023-04-03T02:11:41.673Z,79.68
2023-04-03T02:12:44.504Z,79.72
2023-04-03T02:13:46.767Z,79.74
2023-04-03T02:14:49.097Z,79.75
2023-04-03T02:15:51.353Z,79.67
2023-04-03T02:16:54.699Z,79.70
2023-04-03T02:17:58.661Z,79.62
2023-04-03T02:19:02.321Z,79.66
2023-04-03T02:20:07.737Z,79.69
2023-04-03T02:21:10.072Z,79.62
2023-04-03T02:22:12.132Z,79.54
2023-04-03T02:23:14.618Z,79.50
2023-04-03T02:24:16.900Z,79.52
2023-04-03T02:25:19.381Z,79.56
2023-04-03T02:26:22.938Z,79.55
2023-04-03T02:27:25.210Z,79.53
2023-04-03T02:28:27.285Z,79.53
2023-04-03T02:29:29.497Z,79.47
2023-04-03T02:30:32.008Z,79.51
2023-04-03T02:31:34.285Z,79.48
2023-04-03T02:32:37.232Z,79.43
2023-04-03T02:33:39.525Z,79.43
2023-04-03T02:34:43.378Z,79.42
2023-04-03T02:35:47.885Z,79.41
2023-04-03T02:36:50.743Z,79.46
2023-04-03T02:37:54.775Z,79.52
2023-04-03T02:38:57.950Z,79.56
2023-04-03T02:40:00.210Z,79.60
2023-04-03T02:41:09.357Z,79.67
2023-04-03T02:42:11.466Z,79.76
2023-04-03T02:43:13.911Z,79.82
2023-04-03T02:44:17.193Z,79.88
2023-04-03T02:45:19.382Z,79.85
2023-04-03T02:46:22.045Z,79.85
2023-04-03T02:47:24.758Z,79.80
2023-04-03T02:48:27.214Z,79.79
2023-04-03T02:49:29.798Z,79.78
2023-04-03T02:50:32.255Z,79.85
2023-04-03T02:51:34.418Z,79.89
2023-04-03T02:52:36.791Z,79.86
2023-04-03T02:53:39.257Z,79.83
2023-04-03T02:54:43.345Z,79.82
2023-04-03T02:55:46.305Z,79.83
2023-04-03T02:56:48.616Z,79.85
2023-04-03T02:57:50.811Z,79.87
2023-04-03T02:58:53.093Z,79.83
2023-04-03T02:59:55.342Z,79.84
2023-04-03T03:00:57.614Z,79.79
2023-04-03T03:02:00.007Z,79.77
2023-04-03T03:03:02.392Z,79.82
2023-04-03T03:04:04.808Z,79.88
2023-04-03T03:05:07.541Z,79.92
2023-04-03T03:06:13.688Z,79.92
2023-04-03T03:07:15.827Z,79.90
2023-04-03T03:08:19.046Z,79.94
2023-04-03T03:09:21.702Z,79.94
2023-04-03T03:10:24.858Z,79.96
2023-04-03T03:11:27.166Z,79.95
2023-04-03T03:12:29.856Z,79.96
2023-04-03T03:13:33.934Z,79.97
2023-04-03T03:14:36.262Z,79.94
2023-04-03T03:15:38.266Z,79.94
2023-04-03T03:16:40.524Z,80.04
2023-04-03T03:17:42.999Z,80.02
2023-04-03T03:18:45.178Z,80.06
2023-04-03T03:19:47.268Z,80.08
2023-04-03T03:22:03.319Z,80.11
2023-04-03T03:23:05.624Z,80.30
2023-04-03T03:24:08.128Z,80.23
2023-04-03T03:25:10.298Z,80.21
2023-04-03T03:26:13.378Z,80.18
2023-04-03T03:27:16.070Z,80.16
2023-04-03T03:29:26.982Z,80.05
2023-04-03T03:30:29.383Z,80.13
2023-04-03T03:31:32.096Z,80.06
2023-04-03T03:32:34.417Z,79.99
2023-04-03T03:33:37.804Z,79.96
2023-04-03T03:34:40.457Z,79.93
2023-04-03T03:35:42.552Z,79.88
2023-04-03T03:36:45.309Z,79.87
2023-04-03T03:37:47.572Z,79.95
2023-04-03T03:38:49.765Z,79.96
2023-04-03T03:39:51.728Z,79.89
2023-04-03T03:40:54.604Z,79.80
2023-04-03T03:41:57.178Z,79.82
2023-04-03T03:42:59.447Z,79.87
2023-04-03T03:44:01.865Z,79.87
2023-04-03T03:45:06.512Z,79.87
2023-04-03T03:46:09.200Z,79.91
2023-04-03T03:47:11.394Z,79.88
2023-04-03T03:48:13.854Z,79.84
2023-04-03T03:49:16.087Z,79.89
2023-04-03T03:50:18.559Z,79.98
2023-04-03T03:51:20.820Z,80.05
2023-04-03T03:52:23.190Z,80.02
2023-04-03T03:53:25.996Z,80.01
2023-04-03T03:54:30.077Z,80.06
2023-04-03T03:55:33.205Z,80.16
2023-04-03T03:56:35.340Z,80.14
2023-04-03T03:57:37.763Z,80.08
2023-04-03T03:58:40.572Z,80.14
2023-04-03T03:59:43.153Z,80.05
2023-04-03T04:00:45.513Z,80.05
2023-04-03T04:01:48.825Z,80.09
2023-04-03T04:02:51.199Z,80.10
2023-04-03T04:03:55.287Z,80.16
2023-04-03T04:04:59.239Z,80.14
2023-04-03T04:06:01.491Z,80.04
2023-04-03T04:07:04.537Z,80.05
2023-04-03T04:08:07.515Z,80.09
2023-04-03T04:09:10.392Z,80.14
2023-04-03T04:10:13.204Z,80.11
2023-04-03T04:11:16.485Z,80.11
2023-04-03T04:12:19.352Z,80.18
2023-04-03T04:13:22.132Z,80.33
2023-04-03T04:14:25.024Z,80.34
2023-04-03T04:15:27.646Z,80.33
2023-04-03T04:16:30.219Z,80.34
2023-04-03T04:17:34.630Z,80.44
2023-04-03T04:18:37.131Z,80.51
2023-04-03T04:19:39.366Z,80.54
2023-04-03T04:20:41.842Z,80.51
2023-04-03T04:21:44.915Z,80.46
2023-04-03T04:22:47.172Z,80.47
2023-04-03T04:23:49.424Z,80.51
2023-04-03T04:24:51.668Z,80.51
2023-04-03T04:25:53.968Z,80.51
2023-04-03T04:26:56.852Z,80.54
2023-04-03T04:27:59.316Z,80.53
2023-04-03T04:29:02.088Z,80.44
2023-04-03T04:30:07.876Z,80.39
2023-04-03T04:31:11.432Z,80.41
2023-04-03T04:32:13.739Z,80.46
2023-04-03T04:33:16.372Z,80.44
2023-04-03T04:34:19.382Z,80.39
2023-04-03T04:35:21.687Z,80.42
2023-04-03T04:36:24.903Z,80.42
2023-04-03T04:37:28.213Z,80.51
2023-04-03T04:38:30.552Z,80.51
2023-04-03T04:39:32.880Z,80.52
2023-04-03T04:40:35.150Z,80.58
2023-04-03T04:41:37.621Z,80.55
2023-04-03T04:42:39.984Z,80.46
2023-04-03T04:43:42.446Z,80.48
2023-04-03T04:44:45.488Z,80.42
2023-04-03T04:45:48.931Z,80.43
2023-04-03T04:46:55.173Z,80.47
2023-04-03T04:47:57.260Z,80.44
2023-04-03T04:49:00.246Z,80.45
2023-04-03T04:50:04.554Z,80.36
2023-04-03T04:51:07.626Z,80.30
2023-04-03T04:52:11.416Z,80.41
2023-04-03T04:53:15.797Z,80.45
2023-04-03T04:54:18.572Z,80.47
2023-04-03T04:55:21.693Z,80.50
2023-04-03T04:56:25.792Z,80.51
2023-04-03T04:57:29.551Z,80.50
2023-04-03T04:58:33.323Z,80.50
2023-04-03T04:59:36.922Z,80.56
2023-04-03T05:00:39.902Z,80.68
2023-04-03T05:01:42.779Z,80.60
2023-04-03T05:02:46.919Z,80.63
2023-04-03T05:03:50.036Z,80.66
2023-04-03T05:04:52.983Z,80.61
2023-04-03T05:05:57.242Z,80.59
2023-04-03T05:06:59.703Z,80.57
2023-04-03T05:08:04.452Z,80.47
2023-04-03T05:09:06.740Z,80.46
2023-04-03T05:10:10.492Z,80.48
2023-04-03T05:11:13.550Z,80.52
2023-04-03T05:12:17.215Z,80.55
2023-04-03T05:13:21.563Z,80.47
2023-04-03T05:14:23.832Z,80.46
2023-04-03T05:15:25.976Z,80.49
2023-04-03T05:16:28.396Z,80.50
2023-04-03T05:17:32.165Z,80.48
2023-04-03T05:18:35.848Z,80.48
2023-04-03T05:19:40.477Z,80.47
2023-04-03T05:20:43.518Z,80.52
2023-04-03T05:21:47.657Z,80.54
2023-04-03T05:22:50.896Z,80.53
2023-04-03T05:23:53.863Z,80.54
2023-04-03T05:24:57.517Z,80.60
2023-04-03T05:26:00.016Z,80.65
2023-04-03T05:27:03.094Z,80.63
2023-04-03T05:28:05.742Z,80.59
2023-04-03T05:29:08.031Z,80.62
2023-04-03T05:30:11.483Z,80.56
2023-04-03T05:31:14.641Z,80.57
2023-04-03T05:32:17.727Z,80.64
2023-04-03T05:33:20.393Z,80.71
2023-04-03T05:34:24.845Z,80.68
2023-04-03T05:35:28.462Z,80.63
2023-04-03T05:36:32.864Z,80.62
2023-04-03T05:37:37.480Z,80.55
2023-04-03T05:39:49.304Z,80.63
2023-04-03T05:40:51.573Z,80.80
2023-04-03T05:41:54.285Z,80.78
2023-04-03T05:42:56.572Z,80.79
2023-04-03T05:43:59.134Z,80.85
2023-04-03T05:45:01.768Z,80.85
2023-04-03T05:46:04.243Z,80.89
2023-04-03T05:47:07.033Z,80.84
2023-04-03T05:48:09.334Z,80.79
2023-04-03T05:49:11.866Z,80.77
2023-04-03T05:50:14.426Z,80.74
2023-04-03T05:51:19.893Z,80.73
2023-04-03T05:52:28.658Z,80.76
2023-04-03T05:53:35.425Z,80.78
2023-04-03T05:54:38.933Z,80.83
2023-04-03T05:55:45.949Z,80.93
2023-04-03T05:56:49.264Z,80.96
2023-04-03T05:57:51.605Z,80.99
2023-04-03T05:58:53.769Z,81.01
2023-04-03T05:59:55.931Z,81.00
2023-04-03T06:00:58.352Z,80.96
2023-04-03T06:02:01.596Z,80.97
2023-04-03T06:03:03.910Z,81.03
2023-04-03T06:04:06.586Z,81.16
2023-04-03T06:05:09.799Z,81.20
2023-04-03T06:06:14.598Z,81.21
2023-04-03T06:07:19.850Z,81.21
2023-04-03T06:08:22.321Z,81.16
2023-04-03T06:09:26.856Z,81.05
2023-04-03T06:10:29.751Z,81.02
2023-04-03T06:11:32.512Z,81.03
2023-04-03T06:12:35.387Z,81.06
2023-04-03T06:13:38.118Z,81.08
2023-04-03T06:14:40.383Z,81.15
2023-04-03T06:15:43.851Z,81.28
2023-04-03T06:16:46.641Z,81.31
2023-04-03T06:17:49.950Z,81.31
2023-04-03T06:18:52.166Z,81.29
2023-04-03T06:19:54.868Z,81.34
2023-04-03T06:20:57.622Z,81.37
2023-04-03T06:21:59.885Z,81.30
2023-04-03T06:23:02.161Z,81.15
2023-04-03T06:24:05.557Z,81.08
2023-04-03T06:25:09.460Z,81.10
2023-04-03T06:26:11.762Z,81.09
2023-04-03T06:27:14.592Z,81.05
2023-04-03T06:28:16.686Z,81.01
2023-04-03T06:29:20.820Z,81.06
2023-04-03T06:30:23.119Z,81.03
2023-04-03T06:31:26.008Z,81.04
2023-04-03T06:32:28.528Z,81.05
2023-04-03T06:33:30.598Z,81.05
2023-04-03T06:34:32.877Z,81.06
2023-04-03T06:35:34.825Z,81.08
2023-04-03T06:36:37.089Z,81.10
2023-04-03T06:37:39.380Z,81.11
2023-04-03T06:38:42.108Z,81.12
2023-04-03T06:39:44.601Z,81.12
2023-04-03T06:40:46.837Z,81.09
2023-04-03T06:41:50.603Z,81.03
2023-04-03T06:42:53.591Z,81.02
2023-04-03T06:43:56.831Z,81.01
2023-04-03T06:44:59.015Z,81.03
2023-04-03T06:46:01.680Z,81.04
2023-04-03T06:47:04.673Z,81.12
2023-04-03T06:48:07.051Z,81.03
2023-04-03T06:49:09.792Z,81.05
2023-04-03T06:50:13.837Z,80.99
2023-04-03T06:51:20.022Z,80.93
2023-04-03T06:52:22.691Z,80.88
2023-04-03T06:53:25.400Z,80.87
2023-04-03T06:54:28.059Z,80.88
2023-04-03T06:55:30.135Z,80.91
2023-04-03T06:56:32.584Z,80.92
2023-04-03T06:57:34.908Z,80.93
2023-04-03T06:58:37.470Z,80.91
2023-04-03T06:59:40.070Z,80.96
2023-04-03T07:00:43.269Z,81.02
2023-04-03T07:01:45.927Z,81.14
2023-04-03T07:02:48.601Z,81.16
2023-04-03T07:03:51.376Z,81.26
2023-04-03T07:04:53.877Z,81.31
2023-04-03T07:05:56.161Z,81.30
2023-04-03T07:06:58.856Z,81.17
2023-04-03T07:08:01.726Z,81.14
2023-04-03T07:09:04.090Z,81.11
2023-04-03T07:10:08.012Z,81.10
2023-04-03T07:12:19.737Z,81.06
2023-04-03T07:13:22.456Z,81.09
2023-04-03T07:14:25.112Z,81.08
2023-04-03T07:15:27.282Z,81.12
2023-04-03T07:16:29.576Z,81.03
2023-04-03T07:17:32.114Z,81.03
2023-04-03T07:18:35.020Z,81.14
2023-04-03T07:19:37.118Z,81.26
2023-04-03T07:20:39.683Z,81.30
2023-04-03T07:21:41.837Z,81.35
2023-04-03T07:22:43.841Z,81.24
2023-04-03T07:24:50.066Z,81.09
2023-04-03T07:25:52.944Z,81.07
2023-04-03T07:26:55.829Z,81.00
2023-04-03T07:27:58.204Z,81.05
2023-04-03T07:29:00.349Z,81.20
2023-04-03T07:30:03.228Z,81.33
2023-04-03T07:31:08.530Z,81.33
2023-04-03T07:32:10.938Z,81.21
2023-04-03T07:33:14.855Z,81.14
2023-04-03T07:34:17.092Z,81.04
2023-04-03T07:35:19.832Z,81.06
2023-04-03T07:36:23.149Z,81.08
2023-04-03T07:37:25.366Z,81.03
2023-04-03T07:38:27.629Z,81.02
2023-04-03T07:39:30.205Z,80.96
2023-04-03T07:40:34.102Z,80.93
2023-04-03T07:41:36.771Z,80.83
2023-04-03T07:42:38.645Z,80.75
2023-04-03T07:43:41.289Z,80.81
2023-04-03T07:44:43.568Z,80.73
2023-04-03T07:45:46.250Z,80.81
2023-04-03T07:46:48.562Z,80.93
2023-04-03T07:47:51.966Z,80.85
2023-04-03T07:48:55.249Z,80.76
2023-04-03T07:51:07.297Z,80.92
2023-04-03T07:52:09.992Z,81.03
2023-04-03T07:53:12.798Z,81.09
2023-04-03T07:54:15.314Z,81.00
2023-04-03T07:55:18.019Z,80.90
2023-04-03T07:56:20.264Z,80.67
2023-04-03T07:57:22.625Z,80.55
2023-04-03T07:58:25.362Z,80.50
2023-04-03T07:59:27.518Z,80.48
2023-04-03T08:00:29.783Z,80.44
2023-04-03T08:01:32.834Z,80.34
2023-04-03T08:02:35.135Z,80.16
2023-04-03T08:03:38.379Z,80.12
2023-04-03T08:04:41.030Z,80.11
2023-04-03T08:05:44.889Z,79.97
2023-04-03T08:06:47.383Z,79.99
2023-04-03T08:07:49.462Z,80.00
2023-04-03T08:08:51.612Z,79.98
2023-04-03T08:09:53.694Z,79.92
2023-04-03T08:10:57.845Z,79.88
2023-04-03T08:11:59.975Z,79.84
2023-04-03T08:13:02.634Z,79.81
2023-04-03T08:14:04.770Z,79.71
2023-04-03T08:15:08.934Z,79.85
2023-04-03T08:16:13.681Z,79.75
2023-04-03T08:17:15.993Z,79.73
2023-04-03T08:18:19.386Z,79.82
2023-04-03T08:19:26.533Z,79.84
2023-04-03T08:20:27.499Z,79.76
2023-04-03T08:21:29.636Z,79.81
2023-04-03T08:22:32.221Z,79.84
2023-04-03T08:23:34.389Z,79.98
2023-04-03T08:24:39.109Z,80.14
2023-04-03T08:25:41.747Z,80.20
2023-04-03T08:26:43.929Z,80.04
2023-04-03T08:27:46.136Z,79.97
2023-04-03T08:28:49.313Z,79.80
2023-04-03T08:29:52.027Z,79.73
2023-04-03T08:30:54.703Z,79.75
2023-04-03T08:31:56.842Z,79.94
2023-04-03T08:33:01.541Z,80.06
2023-04-03T08:34:03.882Z,79.93
2023-04-03T08:35:06.263Z,79.92
2023-04-03T08:36:19.211Z,79.88
2023-04-03T08:37:21.973Z,79.60
2023-04-03T08:38:24.200Z,79.71
2023-04-03T08:39:26.411Z,79.81
2023-04-03T08:40:28.677Z,79.91
2023-04-03T08:41:36.827Z,79.73
2023-04-03T08:42:54.961Z,79.54
2023-04-03T08:44:10.449Z,79.45
2023-04-03T08:45:16.288Z,79.38
2023-04-03T08:46:22.286Z,79.08
2023-04-03T08:48:54.091Z,79.48
2023-04-03T08:50:02.336Z,79.58
2023-04-03T08:51:12.508Z,79.49
2023-04-03T08:52:15.892Z,79.51
2023-04-03T08:53:27.698Z,79.38
2023-04-03T08:54:39.818Z,78.99
2023-04-03T08:56:55.566Z,79.00
2023-04-03T08:58:06.301Z,79.06
2023-04-03T08:59:12.591Z,78.98
2023-04-03T09:00:21.887Z,78.84
2023-04-03T09:01:37.262Z,78.82
2023-04-03T09:02:48.167Z,78.66
2023-04-03T09:03:51.174Z,78.56
2023-04-03T09:04:53.909Z,78.48
2023-04-03T09:06:02.559Z,78.21
2023-04-03T09:07:11.328Z,78.21
2023-04-03T09:08:31.840Z,78.20
2023-04-03T09:09:36.906Z,78.36
2023-04-03T09:10:41.986Z,78.57
2023-04-03T09:11:48.884Z,78.66
2023-04-03T09:13:06.660Z,79.00
2023-04-03T09:14:30.620Z,79.15
2023-04-03T09:15:39.076Z,79.09
2023-04-03T09:16:46.012Z,79.05
2023-04-03T09:18:15.274Z,78.97
2023-04-03T09:19:33.851Z,78.92
2023-04-03T09:20:51.324Z,78.77
2023-04-03T09:21:53.744Z,78.62
2023-04-03T09:22:55.885Z,78.94
2023-04-03T09:24:01.095Z,79.15
2023-04-03T09:25:09.868Z,79.19
2023-04-03T09:26:31.579Z,78.90
2023-04-03T09:27:33.787Z,78.82
2023-04-03T09:28:49.249Z,78.69
2023-04-03T09:29:45.610Z,78.92
2023-04-03T09:30:47.812Z,78.94
2023-04-03T09:32:02.601Z,78.67
2023-04-03T09:33:06.115Z,78.62
2023-04-03T09:35:40.625Z,77.87
2023-04-03T09:38:12.489Z,77.52
2023-04-03T09:39:18.597Z,77.63
2023-04-03T09:40:30.637Z,77.71
2023-04-03T09:41:33.971Z,77.40
2023-04-03T09:42:42.287Z,76.91
2023-04-03T09:45:00.110Z,76.41
2023-04-03T09:46:26.068Z,76.59
2023-04-03T09:47:36.397Z,76.57
2023-04-03T09:48:38.661Z,76.38
2023-04-03T09:49:41.246Z,76.45
2023-04-03T09:50:52.890Z,76.39
2023-04-03T09:51:55.106Z,76.42
2023-04-03T09:52:57.266Z,76.48
2023-04-03T09:54:01.340Z,76.42
2023-04-03T09:55:08.848Z,76.69
2023-04-03T09:56:21.254Z,76.62
2023-04-03T09:57:27.133Z,76.76
2023-04-03T09:58:42.782Z,76.89
2023-04-03T09:59:48.320Z,76.96
2023-04-03T10:00:59.088Z,76.89
2023-04-03T10:02:14.868Z,76.81
2023-04-03T10:03:26.735Z,76.74
2023-04-03T10:04:32.601Z,76.83
2023-04-03T10:05:38.080Z,76.54
2023-04-03T10:06:48.998Z,76.40
2023-04-03T10:08:01.793Z,76.35
2023-04-03T10:09:08.190Z,76.43
2023-04-03T10:10:20.175Z,76.46
2023-04-03T10:11:22.383Z,76.37
2023-04-03T10:12:24.930Z,76.43
2023-04-03T10:13:27.557Z,76.76
2023-04-03T10:14:30.867Z,76.67
2023-04-03T10:15:36.629Z,76.42
2023-04-03T10:16:45.848Z,76.25
2023-04-03T10:18:04.502Z,76.11
2023-04-03T10:19:20.852Z,76.19
2023-04-03T10:23:21.613Z,76.36
2023-04-03T10:24:27.575Z,76.39
2023-04-03T10:26:06.800Z,76.55
2023-04-03T10:28:42.263Z,76.45
2023-04-03T10:30:23.338Z,76.15
2023-04-03T10:33:20.417Z,75.87
2023-04-03T10:34:32.135Z,75.65
2023-04-03T10:35:54.589Z,75.03
2023-04-03T10:37:00.430Z,74.96
2023-04-03T10:40:00.636Z,75.34
2023-04-03T10:42:21.639Z,75.48
2023-04-03T10:43:56.707Z,75.46
2023-04-03T10:45:17.529Z,75.70
2023-04-03T10:46:29.308Z,75.65
2023-04-03T10:47:36.102Z,75.63
2023-04-03T10:48:49.160Z,75.44
2023-04-03T10:50:06.950Z,75.30
2023-04-03T10:51:45.070Z,75.20
2023-04-03T10:52:53.840Z,75.32
2023-04-03T10:55:20.884Z,75.71
2023-04-03T10:56:42.488Z,75.80
2023-04-03T10:57:48.376Z,75.67
2023-04-03T10:59:11.116Z,75.74
2023-04-03T11:00:20.130Z,75.71
2023-04-03T11:02:57.002Z,75.64
2023-04-03T11:04:01.146Z,75.33
2023-04-03T11:06:19.225Z,75.12
2023-04-03T11:08:55.299Z,75.19
2023-04-03T11:11:22.351Z,74.82
2023-04-03T11:14:07.909Z,74.84
2023-04-03T11:15:20.149Z,75.27
2023-04-03T11:16:25.638Z,75.44
2023-04-03T11:17:34.255Z,75.19
2023-04-03T11:20:05.455Z,75.06
2023-04-03T11:22:35.308Z,75.43
2023-04-03T11:23:48.811Z,74.76
2023-04-03T11:24:48.390Z,74.48
2023-04-03T11:25:54.080Z,74.05
2023-04-03T11:26:59.072Z,74.25
2023-04-03T11:28:07.312Z,74.39
2023-04-03T11:29:28.125Z,74.36
2023-04-03T11:30:47.454Z,74.01
2023-04-03T11:32:10.215Z,73.96
2023-04-03T11:33:28.515Z,74.16
2023-04-03T11:34:38.450Z,74.29
2023-04-03T11:35:50.575Z,74.53
2023-04-03T11:36:59.754Z,74.56
2023-04-03T11:38:05.687Z,74.77
2023-04-03T11:41:41.113Z,75.16
2023-04-03T11:42:50.874Z,75.17
2023-04-03T11:44:03.044Z,75.11
2023-04-03T11:45:26.973Z,75.14
2023-04-03T11:46:50.289Z,74.92
2023-04-03T11:47:55.358Z,74.44
2023-04-03T11:48:58.269Z,74.29
2023-04-03T11:50:05.095Z,74.31
2023-04-03T11:52:44.769Z,73.91
2023-04-03T11:53:47.314Z,74.37
2023-04-03T11:54:50.125Z,74.35
2023-04-03T11:59:12.411Z,74.95
2023-04-03T12:00:48.218Z,75.02
2023-04-03T12:01:57.074Z,74.94
2023-04-03T12:02:59.487Z,75.06
2023-04-03T12:04:09.739Z,74.98
2023-04-03T12:06:40.097Z,74.88
2023-04-03T12:07:42.869Z,74.71
2023-04-03T12:08:54.305Z,74.86
2023-04-03T12:10:00.053Z,74.84
2023-04-03T12:11:15.109Z,74.95
2023-04-03T12:12:29.829Z,75.11
2023-04-03T12:13:31.959Z,75.08
2023-04-03T12:14:34.216Z,75.19
2023-04-03T12:15:42.982Z,75.25
2023-04-03T12:16:47.520Z,75.27
2023-04-03T12:17:50.307Z,75.18
2023-04-03T12:18:57.176Z,75.19
2023-04-03T12:19:59.423Z,74.75
2023-04-03T12:21:01.590Z,75.06
2023-04-03T12:22:06.704Z,74.93
2023-04-03T12:23:32.508Z,75.09
2023-04-03T12:24:37.022Z,74.85
2023-04-03T12:27:24.574Z,74.74
2023-04-03T12:28:28.337Z,74.38
2023-04-03T12:30:46.905Z,74.65
2023-04-03T12:32:28.177Z,74.62
2023-04-03T12:33:52.366Z,74.81
2023-04-03T12:38:05.245Z,75.55
2023-04-03T12:39:19.928Z,75.82
2023-04-03T12:40:45.136Z,75.28
2023-04-03T12:43:34.412Z,75.40
2023-04-03T12:46:10.858Z,75.78
2023-04-03T12:48:31.864Z,76.32
2023-04-03T12:49:43.224Z,76.95
2023-04-03T12:50:50.399Z,76.84
2023-04-03T12:51:52.859Z,77.11
2023-04-03T12:52:58.588Z,77.18
2023-04-03T12:54:04.522Z,77.07
2023-04-03T12:55:21.387Z,76.90
2023-04-03T12:56:32.066Z,77.01
2023-04-03T12:57:34.198Z,77.03
2023-04-03T12:58:36.322Z,77.34
2023-04-03T12:59:38.798Z,77.67
2023-04-03T13:00:43.284Z,77.90
2023-04-03T13:03:05.183Z,77.36
2023-04-03T13:04:09.504Z,77.33
2023-04-03T13:05:15.257Z,77.54
2023-04-03T13:07:36.279Z,77.81
2023-04-03T13:08:42.197Z,78.13
2023-04-03T13:09:46.707Z,78.33
2023-04-03T13:10:58.495Z,78.35
2023-04-03T13:13:16.240Z,78.59
2023-04-03T13:14:25.079Z,78.70
2023-04-03T13:15:30.443Z,78.86
2023-04-03T13:16:33.940Z,78.77
2023-04-03T13:17:39.517Z,78.64
2023-04-03T13:18:42.260Z,78.44
2023-04-03T13:19:46.597Z,78.40
2023-04-03T13:20:50.919Z,78.41
2023-04-03T13:23:08.240Z,78.51
2023-04-03T13:24:15.671Z,78.82
2023-04-03T13:25:19.815Z,78.82
2023-04-03T13:26:25.042Z,78.92
2023-04-03T13:27:30.178Z,78.94
2023-04-03T13:28:34.326Z,78.74
2023-04-03T13:29:37.889Z,78.73
2023-04-03T13:30:41.513Z,78.71
2023-04-03T13:31:44.231Z,78.76
2023-04-03T13:32:47.566Z,78.98
2023-04-03T13:34:11.571Z,79.11
2023-04-03T13:36:54.401Z,79.21
2023-04-03T13:39:17.673Z,79.21
2023-04-03T13:40:20.168Z,79.32
2023-04-03T13:41:35.190Z,79.18
2023-04-03T13:42:40.373Z,79.02
2023-04-03T13:43:43.196Z,78.95
2023-04-03T13:44:46.603Z,78.92
2023-04-03T13:46:02.244Z,78.88
2023-04-03T13:47:24.191Z,78.92
2023-04-03T13:48:26.910Z,78.94
2023-04-03T13:49:35.628Z,78.90
2023-04-03T13:52:30.500Z,78.86
2023-04-03T13:53:36.607Z,79.08
2023-04-03T13:54:39.806Z,79.11
2023-04-03T13:55:57.903Z,79.13
2023-04-03T13:57:01.148Z,79.06
2023-04-03T13:58:10.259Z,78.98
2023-04-03T13:59:16.142Z,79.11
2023-04-03T14:00:28.075Z,79.26
2023-04-03T14:02:49.690Z,79.44
2023-04-03T14:04:05.066Z,79.67
2023-04-03T14:05:08.736Z,79.61
2023-04-03T14:06:14.878Z,79.51
2023-04-03T14:07:17.391Z,79.58
2023-04-03T14:08:26.433Z,79.70
2023-04-03T14:09:26.576Z,79.72
2023-04-03T14:10:28.859Z,79.84
2023-04-03T14:11:31.435Z,79.90
2023-04-03T14:13:47.384Z,80.09
2023-04-03T14:14:50.095Z,80.08
2023-04-03T14:15:52.393Z,79.99
2023-04-03T14:16:58.049Z,79.93
2023-04-03T14:18:01.614Z,79.86
2023-04-03T14:19:04.798Z,79.70
2023-04-03T14:20:17.785Z,79.65
2023-04-03T14:21:21.299Z,79.61
2023-04-03T14:22:30.018Z,79.60
2023-04-03T14:23:32.757Z,79.42
2023-04-03T14:24:34.796Z,79.39
2023-04-03T14:26:59.516Z,79.44
2023-04-03T14:28:04.305Z,79.44
2023-04-03T14:29:06.443Z,79.45
2023-04-03T14:30:19.275Z,79.44
2023-04-03T14:31:23.134Z,79.44
2023-04-03T14:32:27.708Z,79.60
2023-04-03T14:33:29.941Z,79.58
2023-04-03T14:34:33.165Z,79.52
2023-04-03T14:35:35.385Z,79.56
2023-04-03T14:36:39.607Z,79.63
2023-04-03T14:37:42.660Z,79.67
2023-04-03T14:38:45.188Z,79.69
2023-04-03T14:39:48.578Z,79.63
2023-04-03T14:40:51.787Z,79.56
2023-04-03T14:41:53.985Z,79.63
2023-04-03T14:42:56.320Z,79.74
2023-04-03T14:43:59.729Z,79.84
2023-04-03T14:45:05.442Z,80.00
2023-04-03T14:47:31.314Z,79.59
2023-04-03T14:48:31.101Z,79.40
2023-04-03T14:49:34.540Z,79.51
2023-04-03T14:50:37.428Z,79.60
2023-04-03T14:51:59.820Z,79.57
2023-04-03T14:53:01.928Z,79.37
2023-04-03T14:54:06.454Z,79.40
2023-04-03T14:55:10.891Z,79.42
2023-04-03T14:57:30.468Z,79.29
2023-04-03T14:58:32.900Z,79.35
2023-04-03T14:59:35.576Z,79.37
2023-04-03T15:00:38.174Z,79.38
2023-04-03T15:01:40.781Z,79.36
2023-04-03T15:02:43.767Z,79.51
2023-04-03T15:03:46.460Z,79.70
2023-04-03T15:04:50.166Z,79.70
2023-04-03T15:05:53.339Z,79.83
2023-04-03T15:06:55.508Z,79.81
2023-04-03T15:07:58.625Z,79.88
2023-04-03T15:09:03.035Z,80.07
2023-04-03T15:10:18.420Z,80.14
2023-04-03T15:11:21.207Z,80.04
2023-04-03T15:12:26.038Z,79.96
2023-04-03T15:13:28.710Z,80.00
2023-04-03T15:14:36.805Z,79.99